Time;durP1;ratioP1;P1;durP2;ratioP2;P2;SDS_P1;SDS_P2;PMS_P1;PMS_P2;Temp;Humidity;BMP_temperature;BMP_pressure;BME280_temperature;BME280_humidity;BME280_pressure;Samples;Min_cycle;Max_cycle;Signal;HPM_P1;HPM_P2
2023/01/31 00:01:32;;;;;;;22.20;4.05;;;2.90;99.90;;;;;;5033931;28;20052;-75
2023/01/31 00:04:01;;;;;;;10.37;2.03;;;2.90;99.90;;;;;;5015803;28;20064;-74
2023/01/31 00:06:39;;;;;;;18.60;4.40;;;2.80;99.90;;;;;;5033596;28;20076;-75
2023/01/31 00:09:07;;;;;;;21.23;3.80;;;2.70;99.90;;;;;;5033195;28;20068;-75
2023/01/31 00:11:32;;;;;;;19.80;3.30;;;2.70;99.90;;;;;;5033156;28;20037;-75
2023/01/31 00:14:00;;;;;;;21.67;4.20;;;2.60;99.90;;;;;;5031932;28;20036;-75
2023/01/31 00:16:26;;;;;;;19.05;3.70;;;2.60;99.90;;;;;;5033989;28;20067;-75
2023/01/31 00:18:52;;;;;;;19.83;3.83;;;2.50;99.90;;;;;;5035857;28;20045;-75
2023/01/31 00:21:21;;;;;;;15.20;3.33;;;2.50;99.90;;;;;;5021772;28;20044;-75
2023/01/31 00:23:48;;;;;;;17.20;3.53;;;2.40;99.90;;;;;;5032756;28;20570;-75
2023/01/31 00:26:18;;;;;;;16.38;3.20;;;2.40;99.90;;;;;;5036689;28;20033;-75
2023/01/31 00:28:45;;;;;;;19.02;3.67;;;2.30;99.90;;;;;;5037328;28;20560;-75
2023/01/31 00:31:12;;;;;;;18.13;4.05;;;2.30;99.90;;;;;;5027939;28;20086;-75
2023/01/31 00:33:39;;;;;;;16.23;3.75;;;2.30;99.90;;;;;;5037222;28;20517;-75
2023/01/31 00:36:07;;;;;;;11.43;2.65;;;2.20;99.90;;;;;;5019579;28;20064;-75
2023/01/31 00:38:33;;;;;;;18.65;3.67;;;2.20;99.90;;;;;;5037362;28;20471;-75
2023/01/31 00:40:59;;;;;;;15.73;3.38;;;2.10;99.90;;;;;;5036689;28;20033;-74
2023/01/31 00:43:25;;;;;;;16.60;2.90;;;2.10;99.90;;;;;;5036265;28;20064;-74
2023/01/31 00:45:50;;;;;;;19.38;3.20;;;2.10;99.90;;;;;;5036440;28;20447;-75
2023/01/31 00:48:16;;;;;;;14.98;3.13;;;2.10;99.90;;;;;;5020313;28;20151;-75
2023/01/31 00:50:42;;;;;;;19.63;3.35;;;2.10;99.90;;;;;;5036289;28;20033;-74
2023/01/31 00:53:07;;;;;;;14.70;2.63;;;2.00;99.90;;;;;;5037151;28;20041;-75
2023/01/31 00:55:33;;;;;;;14.00;2.83;;;2.00;99.90;;;;;;5035994;28;20127;-75
2023/01/31 00:57:59;;;;;;;14.80;3.05;;;1.90;99.90;;;;;;5036110;28;20554;-74
2023/01/31 01:00:24;;;;;;;14.13;3.38;;;1.90;99.90;;;;;;5044974;28;20033;-74
2023/01/31 01:02:50;;;;;;;15.07;3.35;;;1.80;99.90;;;;;;5037520;28;20483;-75
2023/01/31 01:05:15;;;;;;;20.10;3.30;;;1.80;99.90;;;;;;5035222;28;20041;-75
2023/01/31 01:07:41;;;;;;;20.45;3.45;;;1.80;99.90;;;;;;5035730;28;20413;-75
2023/01/31 01:10:07;;;;;;;16.35;3.08;;;1.70;99.90;;;;;;5036712;28;20519;-75
2023/01/31 01:12:33;;;;;;;12.88;2.05;;;1.70;99.90;;;;;;5019535;28;20029;-74
2023/01/31 01:14:58;;;;;;;14.05;3.10;;;1.60;99.90;;;;;;5043140;28;20098;-74
2023/01/31 01:17:24;;;;;;;12.45;2.63;;;1.50;99.90;;;;;;5037046;28;20537;-74
2023/01/31 01:19:49;;;;;;;17.15;3.13;;;1.50;99.90;;;;;;5053282;28;20060;-74
2023/01/31 01:22:15;;;;;;;13.80;2.90;;;1.50;99.90;;;;;;5053112;28;20085;-74
2023/01/31 01:24:42;;;;;;;7.65;1.02;;;1.40;99.90;;;;;;5048989;28;20025;-75
2023/01/31 01:27:09;;;;;;;13.35;3.33;;;1.40;99.90;;;;;;5035428;28;20364;-74
2023/01/31 01:29:35;;;;;;;16.80;3.58;;;1.40;99.90;;;;;;5044340;28;20506;-75
2023/01/31 01:32:01;;;;;;;18.08;3.25;;;1.40;99.90;;;;;;5019904;28;20033;-75
2023/01/31 01:34:27;;;;;;;13.27;1.40;;;1.50;99.90;;;;;;5017871;28;20044;-74
2023/01/31 01:36:53;;;;;;;18.88;3.65;;;1.50;99.90;;;;;;5034838;28;20041;-75
2023/01/31 01:39:18;;;;;;;21.30;3.58;;;1.60;99.90;;;;;;5036287;28;20407;-75
2023/01/31 01:41:45;;;;;;;19.88;3.58;;;1.80;99.90;;;;;;5039614;28;20068;-74
2023/01/31 01:44:43;;;;;;;17.70;3.03;;;1.90;99.90;;;;;;5014649;28;20054;-74
2023/01/31 01:47:38;;;;;;;19.70;3.58;;;2.10;99.90;;;;;;5035912;28;20514;-75
2023/01/31 01:50:18;;;;;;;7.43;1.23;;;2.20;99.90;;;;;;5017586;28;20407;-75
2023/01/31 01:52:55;;;;;;;14.07;3.53;;;2.20;99.90;;;;;;5032874;28;20071;-75
2023/01/31 01:55:41;;;;;;;15.05;3.00;;;2.20;99.90;;;;;;5030296;28;20124;-75
2023/01/31 01:58:29;;;;;;;15.75;3.05;;;2.20;99.90;;;;;;5035776;28;20040;-75
2023/01/31 02:00:54;;;;;;;17.17;3.33;;;2.20;99.90;;;;;;5035496;28;20410;-74
2023/01/31 02:03:21;;;;;;;22.23;3.78;;;2.10;99.90;;;;;;5034342;28;20120;-75
2023/01/31 02:05:59;;;;;;;15.95;3.30;;;2.10;99.90;;;;;;5034347;28;20102;-75
2023/01/31 02:08:28;;;;;;;14.32;3.00;;;2.10;99.90;;;;;;5028497;28;20037;-75
2023/01/31 02:11:07;;;;;;;17.98;3.30;;;2.00;99.90;;;;;;5035694;28;20127;-74
2023/01/31 02:13:34;;;;;;;20.35;3.03;;;2.10;99.90;;;;;;5019140;28;20037;-74
2023/01/31 02:15:59;;;;;;;16.45;3.53;;;2.10;99.90;;;;;;5033478;28;20049;-74
2023/01/31 02:18:28;;;;;;;13.98;3.25;;;2.20;99.90;;;;;;5035999;28;20052;-75
2023/01/31 02:20:56;;;;;;;18.55;4.20;;;2.20;99.90;;;;;;5043472;28;20064;-75
2023/01/31 02:23:43;;;;;;;15.13;3.30;;;2.30;99.90;;;;;;5021181;28;20523;-75
2023/01/31 02:26:37;;;;;;;17.33;3.70;;;2.30;99.90;;;;;;5034363;28;20495;-75
2023/01/31 02:29:20;;;;;;;18.05;3.00;;;2.40;99.90;;;;;;5035003;28;20048;-75
2023/01/31 02:32:28;;;;;;;16.35;3.63;;;2.40;99.90;;;;;;5031710;28;20498;-75
2023/01/31 02:35:35;;;;;;;18.65;3.58;;;2.50;99.90;;;;;;4997518;28;20083;-74
2023/01/31 02:38:30;;;;;;;22.48;3.63;;;2.50;99.90;;;;;;5018243;28;20040;-75
2023/01/31 02:41:17;;;;;;;17.08;2.97;;;2.50;99.90;;;;;;5018602;28;20094;-75
2023/01/31 02:46:59;;;;;;;17.42;3.45;;;2.60;99.90;;;;;;5030768;28;20055;-75
2023/01/31 02:49:38;;;;;;;15.93;3.30;;;2.60;99.90;;;;;;5027812;28;20101;-75
2023/01/31 02:52:15;;;;;;;16.30;3.20;;;2.60;99.90;;;;;;5032070;28;20029;-74
2023/01/31 02:57:40;;;;;;;14.90;3.42;;;2.70;99.90;;;;;;5031514;28;20044;-75
2023/01/31 03:00:08;;;;;;;13.73;3.08;;;2.70;99.90;;;;;;5034613;28;20081;-74
2023/01/31 03:02:33;;;;;;;13.57;2.80;;;2.70;99.90;;;;;;5018164;28;20052;-75
2023/01/31 03:04:59;;;;;;;15.90;3.60;;;2.80;99.90;;;;;;5032653;28;20048;-75
2023/01/31 03:07:32;;;;;;;15.68;3.00;;;2.80;99.90;;;;;;5033599;28;20048;-75
2023/01/31 03:10:08;;;;;;;16.33;3.70;;;2.90;99.90;;;;;;5049149;28;20422;-75
2023/01/31 03:12:43;;;;;;;15.02;3.03;;;2.90;99.90;;;;;;5051341;28;20391;-75
2023/01/31 03:17:30;;;;;;;14.82;3.25;;;3.00;99.90;;;;;;5031429;28;20115;-75
2023/01/31 03:18:27;;;;;;;19.85;3.40;;;3.10;99.90;;;;;;5022817;28;20102;-75
2023/01/31 03:21:02;;;;;;;14.88;3.50;;;3.10;99.90;;;;;;5041484;28;20518;-75
2023/01/31 03:23:30;;;;;;;18.45;3.17;;;3.20;99.90;;;;;;5042612;28;20032;-75
2023/01/31 03:25:59;;;;;;;12.98;3.35;;;3.30;99.90;;;;;;5039444;28;20045;-75
2023/01/31 03:28:29;;;;;;;16.27;3.67;;;3.30;99.90;;;;;;5034005;28;20498;-75
2023/01/31 03:31:06;;;;;;;19.27;3.70;;;3.40;99.90;;;;;;5017991;28;20079;-74
2023/01/31 03:33:36;;;;;;;17.60;3.92;;;3.40;99.90;;;;;;5032925;28;20029;-75
2023/01/31 03:36:21;;;;;;;19.75;3.65;;;3.40;99.90;;;;;;5022980;28;20120;-75
2023/01/31 03:38:57;;;;;;;15.55;3.92;;;3.50;99.90;;;;;;5033632;28;20383;-75
2023/01/31 03:41:47;;;;;;;23.05;4.25;;;3.50;99.90;;;;;;5034075;28;20052;-75
2023/01/31 03:44:24;;;;;;;12.70;3.35;;;3.50;99.90;;;;;;5017506;28;20048;-75
2023/01/31 03:46:58;;;;;;;12.77;3.58;;;3.60;99.90;;;;;;5031608;28;20438;-75
2023/01/31 03:49:26;;;;;;;14.40;3.13;;;3.60;99.90;;;;;;5033831;28;20072;-75
2023/01/31 03:52:02;;;;;;;18.17;3.60;;;3.60;99.90;;;;;;5033997;28;20039;-75
2023/01/31 03:54:33;;;;;;;20.23;4.10;;;3.70;99.90;;;;;;5033894;28;20083;-75
2023/01/31 03:57:22;;;;;;;21.67;4.43;;;3.70;99.90;;;;;;5030677;28;20037;-75
2023/01/31 03:59:53;;;;;;;14.48;3.50;;;3.70;99.90;;;;;;5041258;28;20037;-75
2023/01/31 04:02:22;;;;;;;19.73;4.65;;;3.70;99.90;;;;;;5033824;28;20052;-75
2023/01/31 04:04:57;;;;;;;17.27;4.03;;;3.80;99.90;;;;;;5031316;28;20055;-75
2023/01/31 04:07:23;;;;;;;17.67;4.10;;;3.80;99.90;;;;;;5026188;28;20091;-75
2023/01/31 04:09:49;;;;;;;21.92;4.55;;;3.80;99.90;;;;;;5033534;28;20119;-75
2023/01/31 04:12:15;;;;;;;19.20;4.43;;;3.80;99.90;;;;;;5041147;28;20547;-75
2023/01/31 04:14:41;;;;;;;17.17;4.53;;;3.90;99.90;;;;;;5044759;28;20125;-75
2023/01/31 04:17:07;;;;;;;19.85;4.78;;;3.90;99.90;;;;;;5046517;28;20045;-75
2023/01/31 04:19:33;;;;;;;20.42;4.35;;;3.90;99.90;;;;;;5085152;22;20047;-74
2023/01/31 04:21:58;;;;;;;18.38;4.53;;;3.90;99.90;;;;;;5051498;28;20409;-74
2023/01/31 04:24:24;;;;;;;16.30;4.50;;;3.90;99.90;;;;;;5047950;28;20040;-75
2023/01/31 04:26:50;;;;;;;15.48;4.15;;;4.00;99.90;;;;;;5043306;28;20509;-74
2023/01/31 04:29:16;;;;;;;18.35;5.30;;;4.00;99.90;;;;;;5067632;28;20043;-74
2023/01/31 04:31:42;;;;;;;21.95;5.07;;;4.00;99.90;;;;;;5073758;28;20036;-74
2023/01/31 04:34:08;;;;;;;21.35;5.22;;;4.00;99.90;;;;;;5072813;28;20055;-74
2023/01/31 04:36:33;;;;;;;20.63;5.38;;;4.00;99.90;;;;;;5063876;28;20510;-74
2023/01/31 04:38:59;;;;;;;26.02;5.38;;;4.00;99.90;;;;;;5073154;28;20040;-74
2023/01/31 04:41:25;;;;;;;15.70;4.90;;;4.10;99.90;;;;;;5073548;28;20572;-74
2023/01/31 04:43:51;;;;;;;19.52;5.32;;;4.10;99.90;;;;;;5073646;28;20134;-74
2023/01/31 04:46:17;;;;;;;16.98;5.20;;;4.10;99.90;;;;;;5071259;28;20561;-74
2023/01/31 04:48:43;;;;;;;19.98;6.43;;;4.20;99.90;;;;;;5072864;28;20047;-74
2023/01/31 04:51:09;;;;;;;24.00;6.25;;;4.20;99.90;;;;;;5069477;28;20033;-74
2023/01/31 04:53:35;;;;;;;20.55;5.53;;;4.20;99.90;;;;;;5073231;28;20460;-74
2023/01/31 04:56:01;;;;;;;20.95;5.93;;;4.20;99.90;;;;;;5069971;28;20027;-74
2023/01/31 04:58:27;;;;;;;25.40;6.03;;;4.20;99.90;;;;;;5072784;28;20501;-74
2023/01/31 05:00:53;;;;;;;18.02;5.57;;;4.30;99.90;;;;;;5072039;28;20139;-74
2023/01/31 05:03:19;;;;;;;22.90;6.63;;;4.30;99.90;;;;;;5073320;28;20131;-74
2023/01/31 05:05:48;;;;;;;22.85;6.90;;;4.30;99.90;;;;;;5063322;28;20037;-74
2023/01/31 05:08:14;;;;;;;20.17;6.00;;;4.30;99.90;;;;;;5072475;28;20504;-74
2023/01/31 05:10:41;;;;;;;21.45;6.15;;;4.30;99.90;;;;;;5074299;28;20044;-74
2023/01/31 05:13:07;;;;;;;24.02;7.05;;;4.30;99.90;;;;;;5076908;28;20032;-74
2023/01/31 05:15:33;;;;;;;18.23;7.32;;;4.30;99.90;;;;;;5070156;28;20035;-74
2023/01/31 05:18:02;;;;;;;23.55;7.00;;;4.20;99.90;;;;;;5067555;28;20067;-74
2023/01/31 05:20:35;;;;;;;23.58;7.50;;;4.30;99.90;;;;;;5076751;28;20111;-74
2023/01/31 05:23:01;;;;;;;25.90;7.40;;;4.30;99.90;;;;;;5076471;28;20035;-74
2023/01/31 05:25:27;;;;;;;23.50;8.35;;;4.30;99.90;;;;;;5069589;28;20033;-74
2023/01/31 05:27:53;;;;;;;24.15;8.00;;;4.30;99.90;;;;;;5065514;28;20036;-74
2023/01/31 05:30:19;;;;;;;32.67;8.60;;;4.40;99.90;;;;;;5076859;28;20047;-74
2023/01/31 05:32:47;;;;;;;25.08;8.73;;;4.30;99.90;;;;;;5076330;28;20521;-74
2023/01/31 05:35:13;;;;;;;25.10;8.32;;;4.30;99.90;;;;;;5060606;28;20041;-74
2023/01/31 05:37:42;;;;;;;29.13;8.85;;;4.30;99.90;;;;;;5063022;28;20068;-74
2023/01/31 05:40:12;;;;;;;25.85;9.38;;;4.30;99.90;;;;;;5067885;28;20032;-74
2023/01/31 05:42:38;;;;;;;22.38;8.80;;;4.40;99.90;;;;;;5076686;28;20329;-74
2023/01/31 05:45:05;;;;;;;25.30;9.65;;;4.40;99.90;;;;;;5073666;28;20209;-74
2023/01/31 05:47:31;;;;;;;32.25;10.07;;;4.40;99.90;;;;;;5086588;28;20064;-74
2023/01/31 05:49:56;;;;;;;29.80;10.13;;;4.40;99.90;;;;;;5076083;28;20125;-74
2023/01/31 05:52:22;;;;;;;29.52;10.00;;;4.40;99.90;;;;;;5076446;28;20398;-74
2023/01/31 05:54:48;;;;;;;30.30;9.68;;;4.50;99.90;;;;;;5071947;28;20032;-74
2023/01/31 05:57:14;;;;;;;27.40;11.02;;;4.50;99.90;;;;;;5073792;28;20042;-74
2023/01/31 05:59:40;;;;;;;32.42;10.25;;;4.50;99.90;;;;;;5071038;28;20482;-74
2023/01/31 06:02:07;;;;;;;30.77;10.50;;;4.50;99.90;;;;;;5075765;28;20032;-74
2023/01/31 06:04:33;;;;;;;27.25;10.65;;;4.50;99.90;;;;;;5074279;28;20071;-74
2023/01/31 06:06:59;;;;;;;31.15;11.15;;;4.50;99.90;;;;;;5063275;28;20072;-74
2023/01/31 06:09:24;;;;;;;23.00;9.63;;;4.50;99.90;;;;;;5091808;28;20498;-74
2023/01/31 06:11:50;;;;;;;27.90;9.32;;;4.50;99.90;;;;;;5069856;28;20025;-74
2023/01/31 06:14:16;;;;;;;26.85;10.32;;;4.60;99.90;;;;;;5075429;28;20033;-74
2023/01/31 06:16:41;;;;;;;32.20;11.13;;;4.60;99.90;;;;;;5067685;28;20447;-74
2023/01/31 06:19:07;;;;;;;31.83;11.38;;;4.60;99.90;;;;;;5074046;28;20047;-74
2023/01/31 06:21:33;;;;;;;31.30;10.80;;;4.60;99.90;;;;;;5092159;28;20405;-74
2023/01/31 06:23:58;;;;;;;25.58;10.82;;;4.70;99.90;;;;;;5085576;28;20032;-74
2023/01/31 06:26:24;;;;;;;30.98;11.00;;;4.70;99.90;;;;;;5073585;28;20508;-74
2023/01/31 06:28:50;;;;;;;29.35;10.52;;;4.70;99.90;;;;;;5074994;28;20051;-74
2023/01/31 06:31:15;;;;;;;29.90;10.82;;;4.70;99.90;;;;;;5066920;28;20029;-74
2023/01/31 06:33:41;;;;;;;26.17;11.10;;;4.70;99.90;;;;;;5068003;28;20043;-74
2023/01/31 06:36:07;;;;;;;31.42;11.27;;;4.80;99.90;;;;;;5087990;28;20028;-74
2023/01/31 06:38:33;;;;;;;32.65;10.95;;;4.80;99.90;;;;;;5074825;28;20044;-74
2023/01/31 06:40:58;;;;;;;30.48;11.00;;;4.80;99.90;;;;;;5075571;28;20508;-74
2023/01/31 06:43:24;;;;;;;30.73;10.23;;;4.80;99.90;;;;;;5071335;28;20528;-74
2023/01/31 06:45:50;;;;;;;30.40;10.00;;;4.80;99.90;;;;;;5071149;28;20040;-74
2023/01/31 06:48:15;;;;;;;29.45;9.88;;;4.90;99.90;;;;;;5074485;28;20043;-74
2023/01/31 06:50:42;;;;;;;26.52;9.73;;;4.90;99.90;;;;;;5075191;28;20084;-74
2023/01/31 06:53:08;;;;;;;27.35;9.38;;;5.00;99.90;;;;;;5074675;28;20032;-74
2023/01/31 06:55:34;;;;;;;26.92;9.43;;;5.00;99.90;;;;;;5071085;28;20043;-74
2023/01/31 06:57:59;;;;;;;26.27;9.82;;;5.00;99.90;;;;;;5067886;28;20398;-74
2023/01/31 07:00:25;;;;;;;25.33;9.75;;;5.10;99.90;;;;;;5068094;28;20093;-75
2023/01/31 07:02:55;;;;;;;27.50;9.90;;;5.10;99.90;;;;;;5074026;28;20390;-77
2023/01/31 07:05:20;;;;;;;21.38;8.23;;;5.10;99.90;;;;;;5074778;28;20040;-74
2023/01/31 07:07:48;;;;;;;28.38;8.52;;;5.10;99.90;;;;;;5053628;28;20098;-75
2023/01/31 07:10:15;;;;;;;28.95;8.10;;;5.20;99.90;;;;;;5070790;28;20036;-77
2023/01/31 07:12:41;;;;;;;23.20;7.35;;;5.20;99.90;;;;;;5068717;28;20044;-76
2023/01/31 07:15:08;;;;;;;18.38;7.50;;;5.20;99.90;;;;;;5067569;28;20054;-76
2023/01/31 07:17:35;;;;;;;19.15;6.75;;;5.30;99.90;;;;;;5065387;28;20090;-76
2023/01/31 07:20:01;;;;;;;21.27;6.95;;;5.30;99.90;;;;;;5069851;28;20082;-76
2023/01/31 07:22:27;;;;;;;21.27;7.00;;;5.30;99.90;;;;;;5067545;28;20090;-74
2023/01/31 07:24:53;;;;;;;20.58;6.57;;;5.40;99.90;;;;;;5060420;28;20036;-75
2023/01/31 07:27:24;;;;;;;21.75;7.05;;;5.40;99.90;;;;;;5065605;28;20042;-75
2023/01/31 07:29:49;;;;;;;17.00;6.22;;;5.40;99.90;;;;;;5073734;28;20040;-75
2023/01/31 07:32:15;;;;;;;22.08;6.35;;;5.40;99.90;;;;;;5066762;28;20523;-76
2023/01/31 07:34:41;;;;;;;19.23;5.60;;;5.40;99.90;;;;;;5066163;28;20119;-75
2023/01/31 07:37:06;;;;;;;19.98;6.00;;;5.40;99.90;;;;;;5072177;28;20130;-75
2023/01/31 07:39:32;;;;;;;23.02;7.03;;;5.40;99.90;;;;;;5073887;28;20043;-75
2023/01/31 07:41:58;;;;;;;24.00;5.97;;;5.50;99.90;;;;;;5086796;28;20072;-75
2023/01/31 07:44:24;;;;;;;28.02;7.53;;;5.40;99.90;;;;;;5073976;28;20044;-75
2023/01/31 07:46:53;;;;;;;21.63;6.95;;;5.40;99.90;;;;;;5073941;28;20040;-75
2023/01/31 07:49:19;;;;;;;20.02;6.45;;;5.40;99.90;;;;;;5073573;28;20138;-75
2023/01/31 07:51:44;;;;;;;22.85;7.43;;;5.40;99.90;;;;;;5069013;28;20130;-76
2023/01/31 07:54:11;;;;;;;22.90;6.57;;;5.30;99.90;;;;;;5072202;28;20036;-75
2023/01/31 07:56:36;;;;;;;21.10;6.70;;;5.30;99.90;;;;;;5073761;28;20497;-76
2023/01/31 07:59:03;;;;;;;21.20;5.75;;;5.30;99.90;;;;;;5073525;28;20040;-75
2023/01/31 08:04:15;;;;;;;18.35;6.07;;;5.30;99.90;;;;;;5081130;28;20044;-75
2023/01/31 08:06:42;;;;;;;19.42;5.32;;;5.40;99.90;;;;;;5069316;28;20036;-76
2023/01/31 08:09:09;;;;;;;20.35;5.38;;;5.40;99.90;;;;;;5066780;28;20040;-76
2023/01/31 08:11:35;;;;;;;18.27;5.80;;;5.40;99.90;;;;;;5068965;28;20036;-76
2023/01/31 08:14:01;;;;;;;21.00;6.00;;;5.40;99.90;;;;;;5070661;28;20032;-75
2023/01/31 08:16:28;;;;;;;19.88;5.43;;;5.50;99.90;;;;;;5072924;28;20413;-75
2023/01/31 08:19:29;;;;;;;18.75;5.40;;;5.40;99.90;;;;;;5061645;28;20044;-78
2023/01/31 08:21:55;;;;;;;21.25;5.85;;;5.50;99.90;;;;;;5067331;28;20093;-75
2023/01/31 08:24:21;;;;;;;17.73;5.30;;;5.50;99.90;;;;;;5073755;28;20048;-75
2023/01/31 08:26:46;;;;;;;16.13;4.63;;;5.50;99.90;;;;;;5071003;28;20047;-75
2023/01/31 08:29:15;;;;;;;20.65;5.82;;;5.50;99.90;;;;;;5072561;28;20082;-75
2023/01/31 08:31:41;;;;;;;20.73;5.32;;;5.60;99.90;;;;;;5065004;28;20064;-75
2023/01/31 08:34:23;;;;;;;17.27;5.75;;;5.60;99.90;;;;;;5087265;28;20048;-78
2023/01/31 08:36:49;;;;;;;16.48;5.70;;;5.60;99.90;;;;;;5067294;28;20563;-76
2023/01/31 08:39:18;;;;;;;20.35;5.90;;;5.60;99.90;;;;;;5064399;28;20173;-78
2023/01/31 08:41:46;;;;;;;19.25;6.15;;;5.70;99.90;;;;;;5090213;28;20110;-77
2023/01/31 08:44:15;;;;;;;18.05;5.80;;;5.60;99.90;;;;;;5068971;28;20106;-77
2023/01/31 08:57:35;;;;;;;19.45;6.53;;;5.70;99.90;;;;;;4923533;28;20051;-77
2023/01/31 09:00:50;;;;;;;18.88;6.55;;;5.80;99.90;;;;;;5021562;28;20051;-80
2023/01/31 09:03:49;;;;;;;19.20;5.18;;;5.80;99.90;;;;;;5055291;28;20426;-77
2023/01/31 09:06:22;;;;;;;18.77;5.10;;;5.70;99.90;;;;;;5057001;28;20413;-77
2023/01/31 09:08:47;;;;;;;16.67;5.13;;;5.80;99.90;;;;;;5074628;28;20040;-77
2023/01/31 09:11:17;;;;;;;17.48;5.22;;;5.80;99.90;;;;;;5076604;28;20123;-77
2023/01/31 09:13:48;;;;;;;20.45;5.07;;;5.90;99.90;;;;;;5066406;28;20122;-77
2023/01/31 09:16:14;;;;;;;17.88;5.70;;;6.00;99.90;;;;;;5065739;28;20473;-76
2023/01/31 09:18:43;;;;;;;14.38;5.18;;;6.00;99.90;;;;;;5071508;28;20115;-77
2023/01/31 09:21:22;;;;;;;19.73;5.00;;;6.10;99.90;;;;;;5064452;28;20045;-76
2023/01/31 09:24:01;;;;;;;18.50;4.63;;;6.20;99.90;;;;;;5071021;28;20039;-76
2023/01/31 09:26:27;;;;;;;14.55;4.80;;;6.20;99.90;;;;;;5059974;28;20047;-78
2023/01/31 09:28:57;;;;;;;16.42;4.53;;;6.30;99.90;;;;;;5080371;28;20068;-78
2023/01/31 09:31:28;;;;;;;;;;;6.30;99.90;;;;;;5078913;28;20036;-79
2023/01/31 09:33:56;;;;;;;20.13;4.93;;;6.30;99.90;;;;;;5076513;28;19916;-78
2023/01/31 09:36:24;;;;;;;17.02;4.05;;;6.30;99.90;;;;;;5087805;28;20052;-78
2023/01/31 09:39:01;;;;;;;15.90;4.53;;;6.40;99.90;;;;;;5086691;28;20482;-78
2023/01/31 09:41:43;;;;;;;13.52;3.97;;;6.50;99.90;;;;;;5077781;28;20051;-80
2023/01/31 09:44:30;;;;;;;15.88;4.50;;;6.60;99.90;;;;;;5091560;28;20065;-77
2023/01/31 09:47:09;;;;;;;12.75;3.70;;;6.60;99.90;;;;;;5084970;28;20081;-78
2023/01/31 09:49:50;;;;;;;15.15;3.80;;;6.70;99.90;;;;;;5082639;28;20130;-76
2023/01/31 09:52:27;;;;;;;13.60;3.92;;;6.70;99.90;;;;;;5079721;28;20035;-78
2023/01/31 09:54:55;;;;;;;19.27;4.35;;;6.80;99.90;;;;;;5071686;28;20182;-78
2023/01/31 09:57:34;;;;;;;12.75;4.13;;;6.80;99.90;;;;;;5071551;28;20044;-78
2023/01/31 10:00:24;;;;;;;13.77;4.13;;;6.90;99.90;;;;;;5079290;28;20051;-79
2023/01/31 10:03:20;;;;;;;13.57;3.88;;;6.90;99.90;;;;;;5071680;28;20062;-79
2023/01/31 10:06:13;;;;;;;12.25;4.13;;;6.90;99.90;;;;;;5078476;28;20453;-78
2023/01/31 10:08:50;;;;;;;13.43;3.92;;;6.90;99.90;;;;;;5074089;28;20378;-78
2023/01/31 10:11:46;;;;;;;16.10;4.28;;;7.00;99.90;;;;;;5069544;28;20036;-78
2023/01/31 10:14:23;;;;;;;19.13;4.43;;;6.90;99.90;;;;;;5075992;28;20074;-78
2023/01/31 10:17:02;;;;;;;13.75;3.72;;;6.90;99.90;;;;;;5068734;28;20127;-78
2023/01/31 10:19:40;;;;;;;14.55;3.80;;;6.90;99.90;;;;;;5058776;28;20049;-80
2023/01/31 10:22:27;;;;;;;13.80;3.75;;;6.90;99.90;;;;;;5076441;28;20055;-79
2023/01/31 10:25:18;;;;;;;12.60;3.88;;;6.90;99.90;;;;;;5068076;28;20031;-79
2023/01/31 10:27:56;;;;;;;12.80;3.75;;;6.90;99.90;;;;;;5074703;28;20103;-79
2023/01/31 10:30:29;;;;;;;15.43;3.70;;;6.90;99.90;;;;;;5070633;28;20031;-79
2023/01/31 10:33:06;;;;;;;12.48;3.90;;;6.90;99.90;;;;;;5074614;28;20036;-78
2023/01/31 10:35:44;;;;;;;14.10;4.13;;;7.00;99.90;;;;;;5070908;28;20040;-78
2023/01/31 10:38:26;;;;;;;14.82;3.58;;;7.00;99.90;;;;;;5074577;28;20127;-78
2023/01/31 10:41:03;;;;;;;11.63;3.38;;;7.00;99.90;;;;;;5072832;28;20043;-78
2023/01/31 10:43:46;;;;;;;15.95;4.75;;;6.90;99.90;;;;;;5072963;28;20221;-78
2023/01/31 10:46:13;;;;;;;;;;;6.90;99.90;;;;;;5056135;28;20051;-78
2023/01/31 10:48:42;;;;;;;15.23;4.03;;;6.90;99.90;;;;;;5069447;28;19927;-78
2023/01/31 10:51:39;;;;;;;13.38;3.97;;;6.80;99.90;;;;;;5056104;28;20032;-78
2023/01/31 10:54:46;;;;;;;15.38;4.20;;;6.90;99.90;;;;;;5054945;28;20548;-78
2023/01/31 10:57:12;;;;;;;16.98;4.53;;;6.90;99.90;;;;;;5071469;28;20088;-78
2023/01/31 10:59:43;;;;;;;19.30;4.15;;;6.90;99.90;;;;;;5064557;28;20050;-78
2023/01/31 11:02:22;;;;;;;17.40;4.10;;;6.80;99.90;;;;;;5066717;28;20426;-78
2023/01/31 11:04:53;;;;;;;15.98;5.22;;;6.80;99.90;;;;;;5068661;28;20040;-78
2023/01/31 11:07:23;;;;;;;13.00;4.07;;;6.80;99.90;;;;;;5066490;28;20036;-78
2023/01/31 11:09:53;;;;;;;18.15;4.85;;;6.80;99.90;;;;;;5065917;28;20040;-79
2023/01/31 11:12:38;;;;;;;16.10;4.43;;;6.80;99.90;;;;;;5067091;28;20162;-78
2023/01/31 11:15:16;;;;;;;22.35;4.63;;;6.70;99.90;;;;;;5074937;28;20048;-78
2023/01/31 11:17:44;;;;;;;21.10;5.00;;;6.80;99.90;;;;;;5069461;28;20122;-77
2023/01/31 11:20:26;;;;;;;18.70;5.35;;;6.80;99.90;;;;;;5066392;28;20040;-78
2023/01/31 11:22:53;;;;;;;21.23;4.80;;;6.80;99.90;;;;;;5074332;28;20051;-78
2023/01/31 11:25:23;;;;;;;18.70;5.18;;;6.80;99.90;;;;;;5064152;28;20177;-76
2023/01/31 11:27:53;;;;;;;20.33;5.32;;;6.90;99.90;;;;;;5070220;28;20043;-77
2023/01/31 11:30:29;;;;;;;17.48;5.50;;;6.90;99.90;;;;;;5059836;28;20039;-77
2023/01/31 11:32:55;;;;;;;20.05;5.05;;;6.90;99.90;;;;;;5069320;28;20036;-77
2023/01/31 11:35:22;;;;;;;18.80;5.72;;;6.90;99.90;;;;;;5069679;28;20059;-77
2023/01/31 11:37:54;;;;;;;18.98;5.07;;;6.90;99.90;;;;;;5066369;28;20028;-77
2023/01/31 11:40:32;;;;;;;16.17;4.72;;;6.90;99.90;;;;;;5073827;28;20036;-77
2023/01/31 11:43:01;;;;;;;18.88;4.72;;;6.90;99.90;;;;;;5072521;28;20058;-77
2023/01/31 11:45:30;;;;;;;24.08;5.10;;;7.00;99.90;;;;;;5069890;28;20035;-77
2023/01/31 11:48:07;;;;;;;22.13;5.20;;;7.00;99.90;;;;;;5063521;28;20096;-77
2023/01/31 11:50:43;;;;;;;19.50;4.68;;;7.10;99.90;;;;;;5068212;28;20032;-78
2023/01/31 11:53:19;;;;;;;16.25;4.47;;;7.10;99.90;;;;;;5074024;28;20107;-77
2023/01/31 11:55:46;;;;;;;29.08;5.47;;;7.10;99.90;;;;;;5070893;28;20040;-77
2023/01/31 11:58:23;;;;;;;15.75;4.18;;;7.10;99.90;;;;;;5071886;28;20040;-77
2023/01/31 12:00:58;;;;;;;19.00;4.25;;;7.20;99.90;;;;;;5068941;28;20046;-77
2023/01/31 12:03:24;;;;;;;17.10;4.45;;;7.20;99.90;;;;;;5073610;28;20123;-77
2023/01/31 12:05:59;;;;;;;14.48;3.58;;;7.20;99.90;;;;;;5070189;28;20071;-77
2023/01/31 12:08:34;;;;;;;17.23;4.22;;;7.20;99.90;;;;;;5073364;28;20036;-77
2023/01/31 12:11:19;;;;;;;16.20;4.05;;;7.30;99.90;;;;;;5068004;28;20410;-81
2023/01/31 12:14:08;;;;;;;14.20;3.88;;;7.40;99.90;;;;;;5067758;28;20047;-81
2023/01/31 12:16:36;;;;;;;15.90;4.05;;;7.40;99.90;;;;;;5065385;28;20074;-79
2023/01/31 12:19:11;;;;;;;13.40;4.13;;;7.50;99.90;;;;;;5068056;28;20076;-79
2023/01/31 12:22:14;;;;;;;14.80;4.10;;;7.50;99.90;;;;;;5074600;28;20044;-78
2023/01/31 12:25:06;;;;;;;14.73;3.72;;;7.60;99.90;;;;;;5071180;28;20043;-79
2023/01/31 12:27:46;;;;;;;14.15;4.50;;;7.60;99.90;;;;;;5065949;28;20055;-78
2023/01/31 12:30:15;;;;;;;12.95;4.82;;;7.70;99.90;;;;;;5067499;28;20123;-79
2023/01/31 12:33:10;;;;;;;12.93;4.22;;;7.70;99.90;;;;;;5073742;28;20390;-79
2023/01/31 12:35:57;;;;;;;17.98;4.53;;;7.80;99.90;;;;;;5069209;28;20190;-79
2023/01/31 12:38:35;;;;;;;15.20;3.83;;;7.90;99.90;;;;;;5057006;28;20036;-78
2023/01/31 12:41:13;;;;;;;13.20;3.80;;;8.00;99.90;;;;;;5076003;28;20040;-77
2023/01/31 12:43:45;;;;;;;13.50;3.33;;;8.10;99.90;;;;;;5076661;28;20032;-80
2023/01/31 12:46:26;;;;;;;16.30;4.30;;;8.10;99.90;;;;;;5076428;28;20036;-79
2023/01/31 12:49:13;;;;;;;17.65;3.97;;;8.20;99.90;;;;;;5058726;28;20059;-78
2023/01/31 12:51:42;;;;;;;13.63;3.38;;;8.20;99.90;;;;;;5067898;28;20398;-78
2023/01/31 12:54:45;;;;;;;13.43;3.55;;;8.30;99.90;;;;;;5076406;28;20375;-78
2023/01/31 12:57:37;;;;;;;12.93;3.40;;;8.30;99.90;;;;;;5068876;28;20069;-78
2023/01/31 13:00:23;;;;;;;17.67;3.85;;;8.40;99.90;;;;;;5074907;28;20718;-78
2023/01/31 13:03:16;;;;;;;12.48;3.55;;;8.60;99.90;;;;;;5070468;28;20406;-78
2023/01/31 13:05:50;;;;;;;12.60;3.72;;;8.80;99.90;;;;;;5072277;28;20557;-78
2023/01/31 13:08:24;;;;;;;14.63;3.75;;;9.00;99.90;;;;;;5076385;28;20123;-78
2023/01/31 13:11:09;;;;;;;14.05;3.42;;;9.10;99.90;;;;;;5071689;28;20055;-78
2023/01/31 13:13:47;;;;;;;11.80;3.00;;;9.10;99.90;;;;;;5075119;28;20520;-78
2023/01/31 13:16:21;;;;;;;10.85;3.78;;;9.20;99.90;;;;;;5068887;28;20064;-79
2023/01/31 13:18:51;;;;;;;10.63;3.08;;;9.40;99.90;;;;;;5064828;28;20093;-79
2023/01/31 13:21:22;;;;;;;10.13;3.42;;;9.50;99.90;;;;;;5065689;28;20047;-79
2023/01/31 13:23:53;;;;;;;13.95;4.22;;;9.50;99.90;;;;;;5077146;28;20093;-79
2023/01/31 13:26:22;;;;;;;13.20;3.45;;;9.50;99.90;;;;;;5070794;28;20036;-77
2023/01/31 13:28:59;;;;;;;12.57;3.10;;;9.50;99.90;;;;;;5070476;28;20517;-78
2023/01/31 13:31:32;;;;;;;11.77;3.08;;;9.50;99.90;;;;;;5069313;28;20107;-78
2023/01/31 13:34:18;;;;;;;13.23;3.15;;;9.50;99.90;;;;;;5076499;28;20036;-78